sensor_id;sensor_type;location;lat;lon;timestamp;temperature;humidity
51486;DHT22;37565;51.352;6.412;2022-07-03T00:01:27;24.60;94.40
51486;DHT22;37565;51.352;6.412;2022-07-03T00:03:55;24.60;94.40
51486;DHT22;37565;51.352;6.412;2022-07-03T00:06:23;24.60;94.60
51486;DHT22;37565;51.352;6.412;2022-07-03T00:08:51;24.60;94.40
51486;DHT22;37565;51.352;6.412;2022-07-03T00:11:20;24.60;94.40
51486;DHT22;37565;51.352;6.412;2022-07-03T00:13:49;24.60;95.20
51486;DHT22;37565;51.352;6.412;2022-07-03T00:16:17;24.60;95.10
51486;DHT22;37565;51.352;6.412;2022-07-03T00:18:45;24.60;95.40
51486;DHT22;37565;51.352;6.412;2022-07-03T00:21:19;24.60;95.00
51486;DHT22;37565;51.352;6.412;2022-07-03T00:23:52;24.60;94.70
51486;DHT22;37565;51.352;6.412;2022-07-03T00:26:22;24.60;94.70
51486;DHT22;37565;51.352;6.412;2022-07-03T00:28:52;24.60;94.40
51486;DHT22;37565;51.352;6.412;2022-07-03T00:31:22;24.50;94.70
51486;DHT22;37565;51.352;6.412;2022-07-03T00:33:51;24.50;94.70
51486;DHT22;37565;51.352;6.412;2022-07-03T00:36:22;24.50;94.70
51486;DHT22;37565;51.352;6.412;2022-07-03T00:38:51;24.60;94.80
51486;DHT22;37565;51.352;6.412;2022-07-03T00:41:26;24.50;94.60
51486;DHT22;37565;51.352;6.412;2022-07-03T00:43:56;24.50;94.70
51486;DHT22;37565;51.352;6.412;2022-07-03T00:46:26;24.40;94.50
51486;DHT22;37565;51.352;6.412;2022-07-03T00:48:56;24.50;94.60
51486;DHT22;37565;51.352;6.412;2022-07-03T00:51:26;24.50;94.60
51486;DHT22;37565;51.352;6.412;2022-07-03T00:53:57;24.40;94.60
51486;DHT22;37565;51.352;6.412;2022-07-03T00:56:27;24.40;94.60
51486;DHT22;37565;51.352;6.412;2022-07-03T00:58:59;24.40;94.80
51486;DHT22;37565;51.352;6.412;2022-07-03T01:01:30;24.40;94.70
51486;DHT22;37565;51.352;6.412;2022-07-03T01:04:09;24.40;94.80
51486;DHT22;37565;51.352;6.412;2022-07-03T01:06:40;24.40;94.90
51486;DHT22;37565;51.352;6.412;2022-07-03T01:09:10;24.40;94.80
51486;DHT22;37565;51.352;6.412;2022-07-03T01:11:46;24.40;94.90
51486;DHT22;37565;51.352;6.412;2022-07-03T01:14:24;24.40;94.90
51486;DHT22;37565;51.352;6.412;2022-07-03T01:16:58;24.30;94.90
51486;DHT22;37565;51.352;6.412;2022-07-03T01:19:36;24.30;95.00
51486;DHT22;37565;51.352;6.412;2022-07-03T01:22:25;24.30;95.00
51486;DHT22;37565;51.352;6.412;2022-07-03T01:27:56;24.30;95.10
51486;DHT22;37565;51.352;6.412;2022-07-03T01:30:27;24.30;95.10
51486;DHT22;37565;51.352;6.412;2022-07-03T01:32:59;24.30;95.10
51486;DHT22;37565;51.352;6.412;2022-07-03T01:35:32;24.20;95.10
51486;DHT22;37565;51.352;6.412;2022-07-03T01:38:04;24.20;95.10
51486;DHT22;37565;51.352;6.412;2022-07-03T01:40:34;24.20;95.20
51486;DHT22;37565;51.352;6.412;2022-07-03T01:43:06;24.20;95.30
51486;DHT22;37565;51.352;6.412;2022-07-03T01:45:38;24.20;95.30
51486;DHT22;37565;51.352;6.412;2022-07-03T01:48:07;24.20;95.30
51486;DHT22;37565;51.352;6.412;2022-07-03T01:50:37;24.20;95.30
51486;DHT22;37565;51.352;6.412;2022-07-03T01:53:08;24.20;95.30
51486;DHT22;37565;51.352;6.412;2022-07-03T01:55:39;24.20;95.30
51486;DHT22;37565;51.352;6.412;2022-07-03T01:58:09;24.20;95.40
51486;DHT22;37565;51.352;6.412;2022-07-03T02:00:42;24.20;95.40
51486;DHT22;37565;51.352;6.412;2022-07-03T02:03:18;24.20;95.50
51486;DHT22;37565;51.352;6.412;2022-07-03T02:05:47;24.20;95.50
51486;DHT22;37565;51.352;6.412;2022-07-03T02:08:30;24.20;95.50
51486;DHT22;37565;51.352;6.412;2022-07-03T02:11:15;24.20;95.50
51486;DHT22;37565;51.352;6.412;2022-07-03T02:13:58;24.20;95.60
51486;DHT22;37565;51.352;6.412;2022-07-03T02:16:30;24.20;95.60
51486;DHT22;37565;51.352;6.412;2022-07-03T02:19:05;24.10;95.50
51486;DHT22;37565;51.352;6.412;2022-07-03T02:21:33;24.10;95.60
51486;DHT22;37565;51.352;6.412;2022-07-03T02:24:16;24.10;95.60
51486;DHT22;37565;51.352;6.412;2022-07-03T02:26:52;24.10;95.70
51486;DHT22;37565;51.352;6.412;2022-07-03T02:29:30;24.10;95.60
51486;DHT22;37565;51.352;6.412;2022-07-03T02:32:02;24.10;95.70
51486;DHT22;37565;51.352;6.412;2022-07-03T02:34:31;24.10;95.70
51486;DHT22;37565;51.352;6.412;2022-07-03T02:37:06;24.10;95.70
51486;DHT22;37565;51.352;6.412;2022-07-03T02:39:43;24.10;95.80
51486;DHT22;37565;51.352;6.412;2022-07-03T02:42:19;24.10;95.70
51486;DHT22;37565;51.352;6.412;2022-07-03T02:44:52;24.10;95.70
51486;DHT22;37565;51.352;6.412;2022-07-03T02:47:26;24.10;95.60
51486;DHT22;37565;51.352;6.412;2022-07-03T02:50:03;24.10;95.70
51486;DHT22;37565;51.352;6.412;2022-07-03T02:52:39;24.10;95.70
51486;DHT22;37565;51.352;6.412;2022-07-03T02:55:33;24.10;95.90
51486;DHT22;37565;51.352;6.412;2022-07-03T03:01:07;24.00;95.80
51486;DHT22;37565;51.352;6.412;2022-07-03T03:03:38;24.00;95.80
51486;DHT22;37565;51.352;6.412;2022-07-03T03:06:13;24.00;95.80
51486;DHT22;37565;51.352;6.412;2022-07-03T03:08:47;24.00;95.80
51486;DHT22;37565;51.352;6.412;2022-07-03T03:11:23;24.00;95.80
51486;DHT22;37565;51.352;6.412;2022-07-03T03:13:55;24.00;95.80
51486;DHT22;37565;51.352;6.412;2022-07-03T03:16:26;24.00;95.80
51486;DHT22;37565;51.352;6.412;2022-07-03T03:18:54;24.00;95.90
51486;DHT22;37565;51.352;6.412;2022-07-03T03:21:23;24.00;96.00
51486;DHT22;37565;51.352;6.412;2022-07-03T03:23:53;24.00;95.90
51486;DHT22;37565;51.352;6.412;2022-07-03T03:26:23;24.00;96.00
51486;DHT22;37565;51.352;6.412;2022-07-03T03:28:52;24.00;96.20
51486;DHT22;37565;51.352;6.412;2022-07-03T03:31:21;24.00;96.20
51486;DHT22;37565;51.352;6.412;2022-07-03T03:33:51;23.90;96.10
51486;DHT22;37565;51.352;6.412;2022-07-03T03:36:20;23.90;96.00
51486;DHT22;37565;51.352;6.412;2022-07-03T03:38:48;23.90;96.00
51486;DHT22;37565;51.352;6.412;2022-07-03T03:41:17;23.90;96.10
51486;DHT22;37565;51.352;6.412;2022-07-03T03:43:46;23.90;96.00
51486;DHT22;37565;51.352;6.412;2022-07-03T03:46:14;23.90;96.00
51486;DHT22;37565;51.352;6.412;2022-07-03T03:48:43;23.90;95.90
51486;DHT22;37565;51.352;6.412;2022-07-03T03:51:13;23.90;96.20
51486;DHT22;37565;51.352;6.412;2022-07-03T03:53:41;23.90;96.10
51486;DHT22;37565;51.352;6.412;2022-07-03T03:56:16;23.90;96.10
51486;DHT22;37565;51.352;6.412;2022-07-03T03:58:44;23.90;96.10
51486;DHT22;37565;51.352;6.412;2022-07-03T04:01:12;23.90;96.00
51486;DHT22;37565;51.352;6.412;2022-07-03T04:03:40;23.90;96.10
51486;DHT22;37565;51.352;6.412;2022-07-03T04:06:08;23.90;96.10
51486;DHT22;37565;51.352;6.412;2022-07-03T04:08:38;23.90;96.20
51486;DHT22;37565;51.352;6.412;2022-07-03T04:11:06;23.90;96.20
51486;DHT22;37565;51.352;6.412;2022-07-03T04:13:34;23.90;96.20
51486;DHT22;37565;51.352;6.412;2022-07-03T04:16:02;23.90;96.20
51486;DHT22;37565;51.352;6.412;2022-07-03T04:18:30;23.90;96.30
51486;DHT22;37565;51.352;6.412;2022-07-03T04:20:59;23.90;96.20
51486;DHT22;37565;51.352;6.412;2022-07-03T04:23:27;23.90;96.30
51486;DHT22;37565;51.352;6.412;2022-07-03T04:26:02;23.90;96.60
51486;DHT22;37565;51.352;6.412;2022-07-03T04:28:30;23.70;96.60
51486;DHT22;37565;51.352;6.412;2022-07-03T04:30:58;23.90;96.40
51486;DHT22;37565;51.352;6.412;2022-07-03T04:33:27;23.90;96.30
51486;DHT22;37565;51.352;6.412;2022-07-03T04:35:55;23.90;96.10
51486;DHT22;37565;51.352;6.412;2022-07-03T04:38:23;23.90;96.00
51486;DHT22;37565;51.352;6.412;2022-07-03T04:40:51;23.90;95.80
51486;DHT22;37565;51.352;6.412;2022-07-03T04:43:20;23.90;95.00
51486;DHT22;37565;51.352;6.412;2022-07-03T04:45:48;23.90;94.50
51486;DHT22;37565;51.352;6.412;2022-07-03T04:48:16;24.00;94.60
51486;DHT22;37565;51.352;6.412;2022-07-03T04:50:44;24.10;94.40
51486;DHT22;37565;51.352;6.412;2022-07-03T04:53:12;24.10;94.20
51486;DHT22;37565;51.352;6.412;2022-07-03T04:55:40;24.20;94.50
51486;DHT22;37565;51.352;6.412;2022-07-03T04:58:08;24.20;94.50
51486;DHT22;37565;51.352;6.412;2022-07-03T05:00:37;24.20;94.30
51486;DHT22;37565;51.352;6.412;2022-07-03T05:03:10;24.20;94.50
51486;DHT22;37565;51.352;6.412;2022-07-03T05:05:39;24.20;94.60
51486;DHT22;37565;51.352;6.412;2022-07-03T05:08:07;24.20;94.60
51486;DHT22;37565;51.352;6.412;2022-07-03T05:10:35;24.20;94.90
51486;DHT22;37565;51.352;6.412;2022-07-03T05:13:03;24.20;95.00
51486;DHT22;37565;51.352;6.412;2022-07-03T05:15:32;24.20;94.70
51486;DHT22;37565;51.352;6.412;2022-07-03T05:18:02;24.20;95.00
51486;DHT22;37565;51.352;6.412;2022-07-03T05:20:30;24.20;95.20
51486;DHT22;37565;51.352;6.412;2022-07-03T05:23:00;24.10;95.50
51486;DHT22;37565;51.352;6.412;2022-07-03T05:25:30;24.10;95.50
51486;DHT22;37565;51.352;6.412;2022-07-03T05:27:58;24.10;95.80
51486;DHT22;37565;51.352;6.412;2022-07-03T05:30:28;24.10;96.00
51486;DHT22;37565;51.352;6.412;2022-07-03T05:32:56;24.10;96.30
51486;DHT22;37565;51.352;6.412;2022-07-03T05:35:25;24.10;96.50
51486;DHT22;37565;51.352;6.412;2022-07-03T05:37:53;24.10;96.50
51486;DHT22;37565;51.352;6.412;2022-07-03T05:40:21;24.20;96.30
51486;DHT22;37565;51.352;6.412;2022-07-03T05:42:49;24.20;96.30
51486;DHT22;37565;51.352;6.412;2022-07-03T05:45:17;24.20;96.50
51486;DHT22;37565;51.352;6.412;2022-07-03T05:47:45;24.20;96.40
51486;DHT22;37565;51.352;6.412;2022-07-03T05:50:13;24.20;96.60
51486;DHT22;37565;51.352;6.412;2022-07-03T05:52:42;24.20;96.60
51486;DHT22;37565;51.352;6.412;2022-07-03T05:55:10;24.20;96.70
51486;DHT22;37565;51.352;6.412;2022-07-03T05:57:38;24.20;96.70
51486;DHT22;37565;51.352;6.412;2022-07-03T06:00:07;24.20;96.70
51486;DHT22;37565;51.352;6.412;2022-07-03T06:02:35;24.20;96.70
51486;DHT22;37565;51.352;6.412;2022-07-03T06:05:04;24.20;96.70
51486;DHT22;37565;51.352;6.412;2022-07-03T06:07:32;24.20;96.70
51486;DHT22;37565;51.352;6.412;2022-07-03T06:10:01;24.20;96.70
51486;DHT22;37565;51.352;6.412;2022-07-03T06:12:29;24.20;96.70
51486;DHT22;37565;51.352;6.412;2022-07-03T06:14:57;24.20;96.60
51486;DHT22;37565;51.352;6.412;2022-07-03T06:17:28;24.20;96.40
51486;DHT22;37565;51.352;6.412;2022-07-03T06:19:56;24.20;96.50
51486;DHT22;37565;51.352;6.412;2022-07-03T06:22:24;24.20;96.40
51486;DHT22;37565;51.352;6.412;2022-07-03T06:24:52;24.20;96.40
51486;DHT22;37565;51.352;6.412;2022-07-03T06:27:21;24.20;96.30
51486;DHT22;37565;51.352;6.412;2022-07-03T06:29:50;24.20;96.40
51486;DHT22;37565;51.352;6.412;2022-07-03T06:32:18;24.20;96.40
51486;DHT22;37565;51.352;6.412;2022-07-03T06:34:46;24.20;96.30
51486;DHT22;37565;51.352;6.412;2022-07-03T06:37:14;24.20;96.20
51486;DHT22;37565;51.352;6.412;2022-07-03T06:39:42;24.20;96.30
51486;DHT22;37565;51.352;6.412;2022-07-03T06:42:11;24.20;96.20
51486;DHT22;37565;51.352;6.412;2022-07-03T06:44:40;24.20;96.30
51486;DHT22;37565;51.352;6.412;2022-07-03T06:47:08;24.20;96.20
51486;DHT22;37565;51.352;6.412;2022-07-03T06:49:36;24.20;96.20
51486;DHT22;37565;51.352;6.412;2022-07-03T06:52:05;24.20;96.30
51486;DHT22;37565;51.352;6.412;2022-07-03T06:54:33;24.20;96.20
51486;DHT22;37565;51.352;6.412;2022-07-03T06:57:04;24.20;96.30
51486;DHT22;37565;51.352;6.412;2022-07-03T06:59:32;24.20;96.20
51486;DHT22;37565;51.352;6.412;2022-07-03T07:02:02;24.20;96.20
51486;DHT22;37565;51.352;6.412;2022-07-03T07:04:30;24.20;96.10
51486;DHT22;37565;51.352;6.412;2022-07-03T07:06:58;24.20;96.20
51486;DHT22;37565;51.352;6.412;2022-07-03T07:09:26;24.20;96.20
51486;DHT22;37565;51.352;6.412;2022-07-03T07:11:54;24.20;96.10
51486;DHT22;37565;51.352;6.412;2022-07-03T07:14:22;24.20;96.00
51486;DHT22;37565;51.352;6.412;2022-07-03T07:16:50;24.30;96.10
51486;DHT22;37565;51.352;6.412;2022-07-03T07:19:20;24.20;96.00
51486;DHT22;37565;51.352;6.412;2022-07-03T07:21:48;24.30;96.00
51486;DHT22;37565;51.352;6.412;2022-07-03T07:24:16;24.30;96.00
51486;DHT22;37565;51.352;6.412;2022-07-03T07:26:44;24.30;95.80
51486;DHT22;37565;51.352;6.412;2022-07-03T07:29:12;24.30;95.70
51486;DHT22;37565;51.352;6.412;2022-07-03T07:31:40;24.30;95.60
51486;DHT22;37565;51.352;6.412;2022-07-03T07:34:08;24.30;95.60
51486;DHT22;37565;51.352;6.412;2022-07-03T07:36:37;24.30;95.50
51486;DHT22;37565;51.352;6.412;2022-07-03T07:39:05;24.30;95.50
51486;DHT22;37565;51.352;6.412;2022-07-03T07:41:33;24.30;95.60
51486;DHT22;37565;51.352;6.412;2022-07-03T07:44:01;24.30;95.60
51486;DHT22;37565;51.352;6.412;2022-07-03T07:46:30;24.30;95.60
51486;DHT22;37565;51.352;6.412;2022-07-03T07:48:58;24.30;95.60
51486;DHT22;37565;51.352;6.412;2022-07-03T07:51:26;24.30;95.60
51486;DHT22;37565;51.352;6.412;2022-07-03T07:53:55;24.30;95.60
51486;DHT22;37565;51.352;6.412;2022-07-03T07:56:26;24.40;95.60
51486;DHT22;37565;51.352;6.412;2022-07-03T07:58:54;24.40;95.60
51486;DHT22;37565;51.352;6.412;2022-07-03T08:01:22;24.40;95.60
51486;DHT22;37565;51.352;6.412;2022-07-03T08:04:07;24.40;95.50
51486;DHT22;37565;51.352;6.412;2022-07-03T08:06:53;24.40;95.50
51486;DHT22;37565;51.352;6.412;2022-07-03T08:09:22;24.40;95.40
51486;DHT22;37565;51.352;6.412;2022-07-03T08:11:50;24.40;95.30
51486;DHT22;37565;51.352;6.412;2022-07-03T08:14:18;24.40;95.10
51486;DHT22;37565;51.352;6.412;2022-07-03T08:16:46;24.40;95.00
51486;DHT22;37565;51.352;6.412;2022-07-03T08:19:14;24.40;94.80
51486;DHT22;37565;51.352;6.412;2022-07-03T08:21:42;24.40;94.70
51486;DHT22;37565;51.352;6.412;2022-07-03T08:24:10;24.50;94.80
51486;DHT22;37565;51.352;6.412;2022-07-03T08:26:41;24.50;94.70
51486;DHT22;37565;51.352;6.412;2022-07-03T08:29:09;24.50;94.60
51486;DHT22;37565;51.352;6.412;2022-07-03T08:31:37;24.50;94.80
51486;DHT22;37565;51.352;6.412;2022-07-03T08:34:05;24.50;94.70
51486;DHT22;37565;51.352;6.412;2022-07-03T08:36:33;24.50;94.60
51486;DHT22;37565;51.352;6.412;2022-07-03T08:39:01;24.50;94.60
51486;DHT22;37565;51.352;6.412;2022-07-03T08:41:31;24.50;94.60
51486;DHT22;37565;51.352;6.412;2022-07-03T08:44:02;24.50;92.30
51486;DHT22;37565;51.352;6.412;2022-07-03T08:46:31;24.40;90.80
51486;DHT22;37565;51.352;6.412;2022-07-03T08:49:00;24.40;92.20
51486;DHT22;37565;51.352;6.412;2022-07-03T08:51:29;24.40;91.80
51486;DHT22;37565;51.352;6.412;2022-07-03T08:53:59;24.50;91.90
51486;DHT22;37565;51.352;6.412;2022-07-03T08:56:29;24.50;92.10
51486;DHT22;37565;51.352;6.412;2022-07-03T08:58:57;24.20;92.50
51486;DHT22;37565;51.352;6.412;2022-07-03T09:01:27;24.50;92.70
51486;DHT22;37565;51.352;6.412;2022-07-03T09:03:56;24.50;92.70
51486;DHT22;37565;51.352;6.412;2022-07-03T09:06:26;24.50;92.70
51486;DHT22;37565;51.352;6.412;2022-07-03T09:09:02;24.50;92.30
51486;DHT22;37565;51.352;6.412;2022-07-03T09:11:30;24.50;92.00
51486;DHT22;37565;51.352;6.412;2022-07-03T09:13:58;24.50;91.70
51486;DHT22;37565;51.352;6.412;2022-07-03T09:16:27;24.50;91.80
51486;DHT22;37565;51.352;6.412;2022-07-03T09:18:55;24.50;91.70
51486;DHT22;37565;51.352;6.412;2022-07-03T09:21:36;24.50;91.60
51486;DHT22;37565;51.352;6.412;2022-07-03T09:24:06;24.60;91.40
51486;DHT22;37565;51.352;6.412;2022-07-03T09:26:50;24.60;91.40
51486;DHT22;37565;51.352;6.412;2022-07-03T09:29:18;24.60;91.00
51486;DHT22;37565;51.352;6.412;2022-07-03T09:31:55;24.60;91.00
51486;DHT22;37565;51.352;6.412;2022-07-03T09:34:23;24.60;91.10
51486;DHT22;37565;51.352;6.412;2022-07-03T09:36:53;24.60;91.30
51486;DHT22;37565;51.352;6.412;2022-07-03T09:39:23;24.60;91.30
51486;DHT22;37565;51.352;6.412;2022-07-03T09:41:53;24.60;91.60
51486;DHT22;37565;51.352;6.412;2022-07-03T09:44:29;24.60;92.20
51486;DHT22;37565;51.352;6.412;2022-07-03T09:47:10;24.70;92.20
51486;DHT22;37565;51.352;6.412;2022-07-03T09:49:49;24.70;92.60
51486;DHT22;37565;51.352;6.412;2022-07-03T09:52:33;24.70;92.40
51486;DHT22;37565;51.352;6.412;2022-07-03T09:55:12;24.70;92.40
51486;DHT22;37565;51.352;6.412;2022-07-03T09:57:41;24.70;92.40
51486;DHT22;37565;51.352;6.412;2022-07-03T10:00:13;24.70;92.20
51486;DHT22;37565;51.352;6.412;2022-07-03T10:02:57;24.70;92.30
51486;DHT22;37565;51.352;6.412;2022-07-03T10:05:27;24.70;91.80
51486;DHT22;37565;51.352;6.412;2022-07-03T10:07:58;24.70;91.80
51486;DHT22;37565;51.352;6.412;2022-07-03T10:10:28;24.70;91.60
51486;DHT22;37565;51.352;6.412;2022-07-03T10:12:57;24.70;91.70
51486;DHT22;37565;51.352;6.412;2022-07-03T10:15:30;24.70;91.50
51486;DHT22;37565;51.352;6.412;2022-07-03T10:18:00;24.80;91.40
51486;DHT22;37565;51.352;6.412;2022-07-03T10:20:30;24.70;91.30
51486;DHT22;37565;51.352;6.412;2022-07-03T10:22:59;24.80;91.30
51486;DHT22;37565;51.352;6.412;2022-07-03T10:25:29;24.80;91.20
51486;DHT22;37565;51.352;6.412;2022-07-03T10:27:58;24.80;91.10
51486;DHT22;37565;51.352;6.412;2022-07-03T10:30:28;24.70;90.90
51486;DHT22;37565;51.352;6.412;2022-07-03T10:32:56;24.80;90.80
51486;DHT22;37565;51.352;6.412;2022-07-03T10:35:28;24.80;91.50
51486;DHT22;37565;51.352;6.412;2022-07-03T10:40:54;24.80;90.60
51486;DHT22;37565;51.352;6.412;2022-07-03T10:43:44;24.80;90.60
51486;DHT22;37565;51.352;6.412;2022-07-03T10:46:30;24.80;90.70
51486;DHT22;37565;51.352;6.412;2022-07-03T10:49:03;24.80;90.60
51486;DHT22;37565;51.352;6.412;2022-07-03T10:51:53;24.90;91.20
51486;DHT22;37565;51.352;6.412;2022-07-03T10:54:22;24.90;91.30
51486;DHT22;37565;51.352;6.412;2022-07-03T10:57:16;24.90;91.30
51486;DHT22;37565;51.352;6.412;2022-07-03T11:00:01;24.80;90.80
51486;DHT22;37565;51.352;6.412;2022-07-03T11:02:33;24.80;90.20
51486;DHT22;37565;51.352;6.412;2022-07-03T11:08:11;24.80;90.00
51486;DHT22;37565;51.352;6.412;2022-07-03T11:10:43;24.90;90.50
51486;DHT22;37565;51.352;6.412;2022-07-03T11:13:16;24.90;90.80
51486;DHT22;37565;51.352;6.412;2022-07-03T11:15:49;24.90;91.30
51486;DHT22;37565;51.352;6.412;2022-07-03T11:18:20;24.90;91.50
51486;DHT22;37565;51.352;6.412;2022-07-03T11:21:23;24.90;91.30
51486;DHT22;37565;51.352;6.412;2022-07-03T11:24:29;25.00;91.00
51486;DHT22;37565;51.352;6.412;2022-07-03T11:29:58;24.90;91.60
51486;DHT22;37565;51.352;6.412;2022-07-03T11:32:52;24.90;91.70
51486;DHT22;37565;51.352;6.412;2022-07-03T11:35:49;24.90;92.20
51486;DHT22;37565;51.352;6.412;2022-07-03T11:38:21;24.90;92.00
51486;DHT22;37565;51.352;6.412;2022-07-03T11:40:53;24.90;92.00
51486;DHT22;37565;51.352;6.412;2022-07-03T11:43:21;24.90;92.00
51486;DHT22;37565;51.352;6.412;2022-07-03T11:45:49;24.90;92.10
51486;DHT22;37565;51.352;6.412;2022-07-03T11:48:19;25.00;92.20
51486;DHT22;37565;51.352;6.412;2022-07-03T11:50:48;24.90;92.10
51486;DHT22;37565;51.352;6.412;2022-07-03T11:53:24;24.90;92.20
51486;DHT22;37565;51.352;6.412;2022-07-03T11:55:59;24.90;92.20
51486;DHT22;37565;51.352;6.412;2022-07-03T11:58:41;25.00;92.20
51486;DHT22;37565;51.352;6.412;2022-07-03T12:01:10;25.00;92.50
51486;DHT22;37565;51.352;6.412;2022-07-03T12:03:38;25.00;92.30
51486;DHT22;37565;51.352;6.412;2022-07-03T12:06:06;25.00;92.30
51486;DHT22;37565;51.352;6.412;2022-07-03T12:08:34;25.00;92.30
51486;DHT22;37565;51.352;6.412;2022-07-03T12:11:07;25.00;92.30
51486;DHT22;37565;51.352;6.412;2022-07-03T12:13:36;25.00;92.30
51486;DHT22;37565;51.352;6.412;2022-07-03T12:16:06;25.00;92.40
51486;DHT22;37565;51.352;6.412;2022-07-03T12:18:45;25.00;92.40
51486;DHT22;37565;51.352;6.412;2022-07-03T12:21:14;25.00;92.40
51486;DHT22;37565;51.352;6.412;2022-07-03T12:23:44;25.00;92.40
51486;DHT22;37565;51.352;6.412;2022-07-03T12:26:25;25.00;92.40
51486;DHT22;37565;51.352;6.412;2022-07-03T12:28:55;25.00;92.40
51486;DHT22;37565;51.352;6.412;2022-07-03T12:31:24;25.00;92.50
51486;DHT22;37565;51.352;6.412;2022-07-03T12:33:52;25.00;92.50
51486;DHT22;37565;51.352;6.412;2022-07-03T12:36:20;25.00;92.50
51486;DHT22;37565;51.352;6.412;2022-07-03T12:38:48;25.00;92.50
51486;DHT22;37565;51.352;6.412;2022-07-03T12:41:18;25.00;92.60
51486;DHT22;37565;51.352;6.412;2022-07-03T12:43:48;25.00;92.60
51486;DHT22;37565;51.352;6.412;2022-07-03T12:46:21;25.00;92.60
51486;DHT22;37565;51.352;6.412;2022-07-03T12:48:50;25.00;92.60
51486;DHT22;37565;51.352;6.412;2022-07-03T12:51:41;25.00;92.60
51486;DHT22;37565;51.352;6.412;2022-07-03T12:54:11;25.00;92.60
51486;DHT22;37565;51.352;6.412;2022-07-03T12:56:41;25.00;92.70
51486;DHT22;37565;51.352;6.412;2022-07-03T12:59:24;25.10;92.80
51486;DHT22;37565;51.352;6.412;2022-07-03T13:02:02;25.00;92.80
51486;DHT22;37565;51.352;6.412;2022-07-03T13:04:33;25.10;92.80
51486;DHT22;37565;51.352;6.412;2022-07-03T13:07:03;25.00;92.70
51486;DHT22;37565;51.352;6.412;2022-07-03T13:09:32;25.10;92.80
51486;DHT22;37565;51.352;6.412;2022-07-03T13:12:02;25.10;92.90
51486;DHT22;37565;51.352;6.412;2022-07-03T13:14:31;25.10;92.90
51486;DHT22;37565;51.352;6.412;2022-07-03T13:16:59;25.00;92.90
51486;DHT22;37565;51.352;6.412;2022-07-03T13:19:28;25.10;93.00
51486;DHT22;37565;51.352;6.412;2022-07-03T13:21:57;25.10;93.10
51486;DHT22;37565;51.352;6.412;2022-07-03T13:24:26;25.10;93.00
51486;DHT22;37565;51.352;6.412;2022-07-03T13:26:54;25.10;93.10
51486;DHT22;37565;51.352;6.412;2022-07-03T13:29:24;25.10;93.40
51486;DHT22;37565;51.352;6.412;2022-07-03T13:31:52;25.10;93.10
51486;DHT22;37565;51.352;6.412;2022-07-03T13:34:21;25.10;93.20
51486;DHT22;37565;51.352;6.412;2022-07-03T13:36:49;25.10;93.10
51486;DHT22;37565;51.352;6.412;2022-07-03T13:39:17;25.10;93.10
51486;DHT22;37565;51.352;6.412;2022-07-03T13:41:45;25.10;93.00
51486;DHT22;37565;51.352;6.412;2022-07-03T13:44:13;25.10;93.10
51486;DHT22;37565;51.352;6.412;2022-07-03T13:46:43;25.10;93.30
51486;DHT22;37565;51.352;6.412;2022-07-03T13:49:17;25.10;93.20
51486;DHT22;37565;51.352;6.412;2022-07-03T13:51:45;25.10;93.30
51486;DHT22;37565;51.352;6.412;2022-07-03T13:54:13;25.20;93.80
51486;DHT22;37565;51.352;6.412;2022-07-03T13:56:41;25.20;93.50
51486;DHT22;37565;51.352;6.412;2022-07-03T13:59:09;25.10;93.40
51486;DHT22;37565;51.352;6.412;2022-07-03T14:01:38;25.10;93.40
51486;DHT22;37565;51.352;6.412;2022-07-03T14:04:08;25.20;93.50
51486;DHT22;37565;51.352;6.412;2022-07-03T14:06:36;25.10;93.30
51486;DHT22;37565;51.352;6.412;2022-07-03T14:09:04;25.10;93.40
51486;DHT22;37565;51.352;6.412;2022-07-03T14:11:32;25.10;93.40
51486;DHT22;37565;51.352;6.412;2022-07-03T14:14:00;25.20;93.50
51486;DHT22;37565;51.352;6.412;2022-07-03T14:16:28;25.20;93.30
51486;DHT22;37565;51.352;6.412;2022-07-03T14:18:56;25.20;93.20
51486;DHT22;37565;51.352;6.412;2022-07-03T14:21:26;25.20;93.30
51486;DHT22;37565;51.352;6.412;2022-07-03T14:23:54;25.20;93.40
51486;DHT22;37565;51.352;6.412;2022-07-03T14:26:22;25.20;93.40
51486;DHT22;37565;51.352;6.412;2022-07-03T14:29:04;25.20;93.40
51486;DHT22;37565;51.352;6.412;2022-07-03T14:31:49;25.20;93.50
51486;DHT22;37565;51.352;6.412;2022-07-03T14:34:34;25.20;93.60
51486;DHT22;37565;51.352;6.412;2022-07-03T14:37:04;25.20;93.50
51486;DHT22;37565;51.352;6.412;2022-07-03T14:39:32;25.20;93.60
51486;DHT22;37565;51.352;6.412;2022-07-03T14:42:00;25.20;93.60
51486;DHT22;37565;51.352;6.412;2022-07-03T14:44:29;25.20;93.70
51486;DHT22;37565;51.352;6.412;2022-07-03T14:46:57;25.20;93.60
51486;DHT22;37565;51.352;6.412;2022-07-03T14:49:25;25.20;93.60
51486;DHT22;37565;51.352;6.412;2022-07-03T14:51:53;25.20;93.60
51486;DHT22;37565;51.352;6.412;2022-07-03T14:54:23;25.20;93.70
51486;DHT22;37565;51.352;6.412;2022-07-03T14:56:53;25.20;93.80
51486;DHT22;37565;51.352;6.412;2022-07-03T14:59:28;25.20;93.70
51486;DHT22;37565;51.352;6.412;2022-07-03T15:02:01;25.20;93.70
51486;DHT22;37565;51.352;6.412;2022-07-03T15:04:40;25.20;93.70
51486;DHT22;37565;51.352;6.412;2022-07-03T15:07:13;25.20;93.70
51486;DHT22;37565;51.352;6.412;2022-07-03T15:09:50;25.20;93.80
51486;DHT22;37565;51.352;6.412;2022-07-03T15:12:23;25.30;94.10
51486;DHT22;37565;51.352;6.412;2022-07-03T15:14:56;25.30;94.10
51486;DHT22;37565;51.352;6.412;2022-07-03T15:17:25;25.20;94.00
51486;DHT22;37565;51.352;6.412;2022-07-03T15:19:55;25.30;94.10
51486;DHT22;37565;51.352;6.412;2022-07-03T15:22:24;25.30;94.10
51486;DHT22;37565;51.352;6.412;2022-07-03T15:24:54;25.30;94.00
51486;DHT22;37565;51.352;6.412;2022-07-03T15:27:24;25.30;94.10
51486;DHT22;37565;51.352;6.412;2022-07-03T15:29:52;25.20;93.90
51486;DHT22;37565;51.352;6.412;2022-07-03T15:32:20;25.30;93.90
51486;DHT22;37565;51.352;6.412;2022-07-03T15:34:49;25.30;93.90
51486;DHT22;37565;51.352;6.412;2022-07-03T15:37:28;25.30;93.90
51486;DHT22;37565;51.352;6.412;2022-07-03T15:40:04;25.30;93.90
51486;DHT22;37565;51.352;6.412;2022-07-03T15:42:46;25.20;93.90
51486;DHT22;37565;51.352;6.412;2022-07-03T15:45:28;25.30;93.90
51486;DHT22;37565;51.352;6.412;2022-07-03T15:48:10;25.30;93.80
51486;DHT22;37565;51.352;6.412;2022-07-03T15:50:43;25.30;93.80
51486;DHT22;37565;51.352;6.412;2022-07-03T15:53:18;25.30;94.10
51486;DHT22;37565;51.352;6.412;2022-07-03T15:55:52;25.30;93.70
51486;DHT22;37565;51.352;6.412;2022-07-03T15:58:28;25.30;93.60
51486;DHT22;37565;51.352;6.412;2022-07-03T16:00:58;25.30;93.70
51486;DHT22;37565;51.352;6.412;2022-07-03T16:03:53;25.30;93.60
51486;DHT22;37565;51.352;6.412;2022-07-03T16:06:32;25.30;93.60
51486;DHT22;37565;51.352;6.412;2022-07-03T16:09:00;25.30;93.70
51486;DHT22;37565;51.352;6.412;2022-07-03T16:11:30;25.30;93.50